sensor_id;sensor_type;location;lat;lon;timestamp;temperature;humidity
15184;DHT22;7693;49.266;7.104;2023-03-14T06:18:36;9.10;99.90
15184;DHT22;7693;49.266;7.104;2023-03-14T06:21:02;9.10;99.90
15184;DHT22;7693;49.266;7.104;2023-03-14T06:23:28;9.10;99.90
15184;DHT22;7693;49.266;7.104;2023-03-14T06:25:55;9.10;99.90
15184;DHT22;7693;49.266;7.104;2023-03-14T06:28:21;9.10;99.90
15184;DHT22;7693;49.266;7.104;2023-03-14T06:30:46;9.20;99.90
15184;DHT22;7693;49.266;7.104;2023-03-14T06:33:12;9.20;99.90
15184;DHT22;7693;49.266;7.104;2023-03-14T06:35:38;9.20;99.90
15184;DHT22;7693;49.266;7.104;2023-03-14T06:38:03;9.30;99.90
15184;DHT22;7693;49.266;7.104;2023-03-14T06:40:29;9.30;99.90
15184;DHT22;7693;49.266;7.104;2023-03-14T06:42:55;9.30;99.90
15184;DHT22;7693;49.266;7.104;2023-03-14T06:45:21;9.30;99.90
15184;DHT22;7693;49.266;7.104;2023-03-14T06:47:46;9.40;99.90
15184;DHT22;7693;49.266;7.104;2023-03-14T06:50:12;9.40;99.90
15184;DHT22;7693;49.266;7.104;2023-03-14T06:52:37;9.40;99.90
15184;DHT22;7693;49.266;7.104;2023-03-14T06:55:07;9.40;99.90
15184;DHT22;7693;49.266;7.104;2023-03-14T06:57:32;9.50;99.90
15184;DHT22;7693;49.266;7.104;2023-03-14T06:59:58;9.50;99.90
15184;DHT22;7693;49.266;7.104;2023-03-14T07:02:23;9.50;99.90
15184;DHT22;7693;49.266;7.104;2023-03-14T07:04:49;9.60;99.90
15184;DHT22;7693;49.266;7.104;2023-03-14T07:07:15;9.60;99.90
15184;DHT22;7693;49.266;7.104;2023-03-14T07:09:41;9.60;99.90
15184;DHT22;7693;49.266;7.104;2023-03-14T07:12:07;9.60;99.90
15184;DHT22;7693;49.266;7.104;2023-03-14T07:14:32;9.60;99.90
15184;DHT22;7693;49.266;7.104;2023-03-14T07:16:58;9.60;99.90
15184;DHT22;7693;49.266;7.104;2023-03-14T07:19:24;9.60;99.90
15184;DHT22;7693;49.266;7.104;2023-03-14T07:21:49;9.60;99.90
15184;DHT22;7693;49.266;7.104;2023-03-14T07:24:15;9.60;99.90
15184;DHT22;7693;49.266;7.104;2023-03-14T07:26:40;9.70;99.90
15184;DHT22;7693;49.266;7.104;2023-03-14T07:29:06;9.70;99.90
15184;DHT22;7693;49.266;7.104;2023-03-14T07:31:32;9.70;99.90
15184;DHT22;7693;49.266;7.104;2023-03-14T07:33:57;9.80;99.90
15184;DHT22;7693;49.266;7.104;2023-03-14T07:36:23;9.80;99.90
15184;DHT22;7693;49.266;7.104;2023-03-14T07:38:49;9.80;99.90
15184;DHT22;7693;49.266;7.104;2023-03-14T07:41:14;9.80;99.90
15184;DHT22;7693;49.266;7.104;2023-03-14T07:43:40;9.80;99.90
15184;DHT22;7693;49.266;7.104;2023-03-14T07:46:06;9.90;99.90
15184;DHT22;7693;49.266;7.104;2023-03-14T07:48:32;9.90;99.90
15184;DHT22;7693;49.266;7.104;2023-03-14T07:50:58;9.90;99.90
15184;DHT22;7693;49.266;7.104;2023-03-14T07:53:24;9.90;99.90
15184;DHT22;7693;49.266;7.104;2023-03-14T07:55:53;9.90;99.90
15184;DHT22;7693;49.266;7.104;2023-03-14T07:58:20;10.00;99.90
15184;DHT22;7693;49.266;7.104;2023-03-14T08:00:47;10.00;99.90
15184;DHT22;7693;49.266;7.104;2023-03-14T08:03:13;10.10;99.90
15184;DHT22;7693;49.266;7.104;2023-03-14T08:05:39;10.10;99.90
15184;DHT22;7693;49.266;7.104;2023-03-14T08:08:05;10.10;99.90
15184;DHT22;7693;49.266;7.104;2023-03-14T08:10:31;10.10;99.90
15184;DHT22;7693;49.266;7.104;2023-03-14T08:12:58;10.10;99.90
15184;DHT22;7693;49.266;7.104;2023-03-14T08:15:25;10.10;99.90
15184;DHT22;7693;49.266;7.104;2023-03-14T08:17:51;10.10;99.90
15184;DHT22;7693;49.266;7.104;2023-03-14T08:20:20;10.10;99.90
15184;DHT22;7693;49.266;7.104;2023-03-14T08:22:46;10.20;99.90
15184;DHT22;7693;49.266;7.104;2023-03-14T08:25:12;10.20;99.90
15184;DHT22;7693;49.266;7.104;2023-03-14T08:27:37;10.20;99.90
15184;DHT22;7693;49.266;7.104;2023-03-14T08:30:05;10.30;99.90
15184;DHT22;7693;49.266;7.104;2023-03-14T08:32:31;10.20;99.90
15184;DHT22;7693;49.266;7.104;2023-03-14T08:34:57;10.30;99.90
15184;DHT22;7693;49.266;7.104;2023-03-14T08:37:23;10.30;99.90
15184;DHT22;7693;49.266;7.104;2023-03-14T08:39:50;10.30;99.90
15184;DHT22;7693;49.266;7.104;2023-03-14T08:42:16;10.30;99.90
15184;DHT22;7693;49.266;7.104;2023-03-14T08:44:42;10.30;99.90
15184;DHT22;7693;49.266;7.104;2023-03-14T08:47:08;10.30;99.90
15184;DHT22;7693;49.266;7.104;2023-03-14T08:49:33;10.30;99.90
15184;DHT22;7693;49.266;7.104;2023-03-14T08:51:59;10.30;99.90
15184;DHT22;7693;49.266;7.104;2023-03-14T08:54:26;10.40;99.90
15184;DHT22;7693;49.266;7.104;2023-03-14T08:56:52;10.40;99.90
15184;DHT22;7693;49.266;7.104;2023-03-14T08:59:17;10.40;99.90
15184;DHT22;7693;49.266;7.104;2023-03-14T09:01:43;10.40;99.90
15184;DHT22;7693;49.266;7.104;2023-03-14T09:04:08;10.30;99.90
15184;DHT22;7693;49.266;7.104;2023-03-14T09:06:35;10.30;99.90
15184;DHT22;7693;49.266;7.104;2023-03-14T09:09:01;10.30;99.90
15184;DHT22;7693;49.266;7.104;2023-03-14T09:11:27;10.30;99.90
15184;DHT22;7693;49.266;7.104;2023-03-14T09:13:52;10.30;99.90
15184;DHT22;7693;49.266;7.104;2023-03-14T09:16:18;10.20;99.90
15184;DHT22;7693;49.266;7.104;2023-03-14T09:18:43;10.20;99.90
15184;DHT22;7693;49.266;7.104;2023-03-14T09:21:09;10.20;99.90
15184;DHT22;7693;49.266;7.104;2023-03-14T09:23:34;10.30;99.90
15184;DHT22;7693;49.266;7.104;2023-03-14T09:26:00;10.30;99.90
15184;DHT22;7693;49.266;7.104;2023-03-14T09:28:26;10.20;99.90
15184;DHT22;7693;49.266;7.104;2023-03-14T09:30:52;10.20;99.90
15184;DHT22;7693;49.266;7.104;2023-03-14T09:33:18;10.20;99.90
15184;DHT22;7693;49.266;7.104;2023-03-14T09:35:44;10.20;99.90
15184;DHT22;7693;49.266;7.104;2023-03-14T09:38:09;10.20;99.90
15184;DHT22;7693;49.266;7.104;2023-03-14T09:40:36;10.20;99.90
15184;DHT22;7693;49.266;7.104;2023-03-14T09:43:03;10.10;99.90
15184;DHT22;7693;49.266;7.104;2023-03-14T09:45:33;10.10;99.90
15184;DHT22;7693;49.266;7.104;2023-03-14T09:48:00;10.10;99.90
15184;DHT22;7693;49.266;7.104;2023-03-14T09:50:33;10.10;99.90
15184;DHT22;7693;49.266;7.104;2023-03-14T09:53:04;10.10;99.90
15184;DHT22;7693;49.266;7.104;2023-03-14T09:55:32;10.10;99.90
15184;DHT22;7693;49.266;7.104;2023-03-14T09:58:02;10.10;99.90
15184;DHT22;7693;49.266;7.104;2023-03-14T10:00:30;10.00;99.90
15184;DHT22;7693;49.266;7.104;2023-03-14T10:05:40;9.90;99.90
15184;DHT22;7693;49.266;7.104;2023-03-14T10:08:10;9.80;99.90
15184;DHT22;7693;49.266;7.104;2023-03-14T10:10:35;9.80;99.90
15184;DHT22;7693;49.266;7.104;2023-03-14T10:13:20;9.70;99.90
15184;DHT22;7693;49.266;7.104;2023-03-14T10:15:55;9.60;99.90
15184;DHT22;7693;49.266;7.104;2023-03-14T10:18:23;9.50;99.90
15184;DHT22;7693;49.266;7.104;2023-03-14T10:23:33;9.20;99.90
15184;DHT22;7693;49.266;7.104;2023-03-14T10:26:07;9.10;99.90
15184;DHT22;7693;49.266;7.104;2023-03-14T10:31:03;9.00;99.90
15184;DHT22;7693;49.266;7.104;2023-03-14T10:33:34;8.90;99.90
15184;DHT22;7693;49.266;7.104;2023-03-14T10:36:01;8.80;99.90
15184;DHT22;7693;49.266;7.104;2023-03-14T10:38:33;8.80;99.90
15184;DHT22;7693;49.266;7.104;2023-03-14T10:41:00;8.80;99.90
15184;DHT22;7693;49.266;7.104;2023-03-14T10:43:32;8.80;99.90
15184;DHT22;7693;49.266;7.104;2023-03-14T10:46:12;8.70;99.90
15184;DHT22;7693;49.266;7.104;2023-03-14T10:48:39;8.60;99.90
15184;DHT22;7693;49.266;7.104;2023-03-14T10:51:11;8.60;99.90
15184;DHT22;7693;49.266;7.104;2023-03-14T10:53:48;8.50;99.90
15184;DHT22;7693;49.266;7.104;2023-03-14T10:56:20;8.50;99.90
15184;DHT22;7693;49.266;7.104;2023-03-14T10:58:47;8.40;99.90
15184;DHT22;7693;49.266;7.104;2023-03-14T11:01:42;8.40;99.90
15184;DHT22;7693;49.266;7.104;2023-03-14T11:17:57;8.20;99.90
15184;DHT22;7693;49.266;7.104;2023-03-14T11:20:38;8.30;99.90
15184;DHT22;7693;49.266;7.104;2023-03-14T11:25:47;8.80;99.90
15184;DHT22;7693;49.266;7.104;2023-03-14T11:28:29;9.00;99.90
15184;DHT22;7693;49.266;7.104;2023-03-14T13:18:50;9.30;99.90
15184;DHT22;7693;49.266;7.104;2023-03-14T13:21:24;9.40;99.90
15184;DHT22;7693;49.266;7.104;2023-03-14T13:23:57;9.50;99.90
15184;DHT22;7693;49.266;7.104;2023-03-14T13:26:26;9.60;99.90
15184;DHT22;7693;49.266;7.104;2023-03-14T13:28:57;9.70;99.90
15184;DHT22;7693;49.266;7.104;2023-03-14T13:31:24;9.80;99.90
15184;DHT22;7693;49.266;7.104;2023-03-14T13:34:06;9.80;99.90
15184;DHT22;7693;49.266;7.104;2023-03-14T13:36:35;9.70;99.90
15184;DHT22;7693;49.266;7.104;2023-03-14T13:39:01;9.70;99.90
15184;DHT22;7693;49.266;7.104;2023-03-14T13:41:28;9.80;99.90
15184;DHT22;7693;49.266;7.104;2023-03-14T13:44:21;10.00;99.90
15184;DHT22;7693;49.266;7.104;2023-03-14T13:46:48;10.10;99.90
15184;DHT22;7693;49.266;7.104;2023-03-14T13:49:22;10.10;99.90
15184;DHT22;7693;49.266;7.104;2023-03-14T13:51:48;10.10;99.90
15184;DHT22;7693;49.266;7.104;2023-03-14T13:54:15;10.00;99.90
15184;DHT22;7693;49.266;7.104;2023-03-14T13:56:41;10.00;99.90
15184;DHT22;7693;49.266;7.104;2023-03-14T13:59:29;10.10;99.90
15184;DHT22;7693;49.266;7.104;2023-03-14T14:01:58;10.10;99.90
15184;DHT22;7693;49.266;7.104;2023-03-14T14:04:25;10.10;99.90
15184;DHT22;7693;49.266;7.104;2023-03-14T14:06:57;10.10;99.90
15184;DHT22;7693;49.266;7.104;2023-03-14T14:09:35;10.10;99.90
15184;DHT22;7693;49.266;7.104;2023-03-14T14:12:06;10.00;99.90
15184;DHT22;7693;49.266;7.104;2023-03-14T14:17:43;9.90;99.90
15184;DHT22;7693;49.266;7.104;2023-03-14T14:20:22;9.80;99.90
15184;DHT22;7693;49.266;7.104;2023-03-14T14:22:49;9.90;99.90
15184;DHT22;7693;49.266;7.104;2023-03-14T14:25:15;10.00;99.90
15184;DHT22;7693;49.266;7.104;2023-03-14T14:27:46;10.00;99.90
15184;DHT22;7693;49.266;7.104;2023-03-14T14:32:48;9.80;99.90
15184;DHT22;7693;49.266;7.104;2023-03-14T14:37:50;9.70;99.90
15184;DHT22;7693;49.266;7.104;2023-03-14T14:40:19;9.60;99.90
15184;DHT22;7693;49.266;7.104;2023-03-14T14:42:46;9.60;99.90
15184;DHT22;7693;49.266;7.104;2023-03-14T14:45:27;9.60;99.90
15184;DHT22;7693;49.266;7.104;2023-03-14T14:50:31;9.50;99.90
15184;DHT22;7693;49.266;7.104;2023-03-14T14:53:00;9.50;99.90
15184;DHT22;7693;49.266;7.104;2023-03-14T14:55:39;9.60;99.90
15184;DHT22;7693;49.266;7.104;2023-03-14T15:03:18;10.60;99.90
15184;DHT22;7693;49.266;7.104;2023-03-14T15:05:44;10.80;99.90
15184;DHT22;7693;49.266;7.104;2023-03-14T15:08:10;10.80;99.90
15184;DHT22;7693;49.266;7.104;2023-03-14T15:10:36;10.60;99.90
15184;DHT22;7693;49.266;7.104;2023-03-14T15:13:02;10.30;99.90
15184;DHT22;7693;49.266;7.104;2023-03-14T15:15:28;10.10;99.90
15184;DHT22;7693;49.266;7.104;2023-03-14T15:17:53;10.00;99.90
15184;DHT22;7693;49.266;7.104;2023-03-14T15:20:19;9.90;99.90
15184;DHT22;7693;49.266;7.104;2023-03-14T15:22:46;9.90;99.90
15184;DHT22;7693;49.266;7.104;2023-03-14T15:25:12;9.80;99.90
15184;DHT22;7693;49.266;7.104;2023-03-14T15:27:39;9.80;99.90
15184;DHT22;7693;49.266;7.104;2023-03-14T15:30:15;9.70;99.90
15184;DHT22;7693;49.266;7.104;2023-03-14T15:32:41;9.70;99.90
15184;DHT22;7693;49.266;7.104;2023-03-14T15:35:07;9.70;99.90
15184;DHT22;7693;49.266;7.104;2023-03-14T15:37:33;9.60;99.90
15184;DHT22;7693;49.266;7.104;2023-03-14T15:39:59;9.60;99.90
15184;DHT22;7693;49.266;7.104;2023-03-14T15:42:24;9.60;99.90
15184;DHT22;7693;49.266;7.104;2023-03-14T15:44:50;9.60;99.90
15184;DHT22;7693;49.266;7.104;2023-03-14T15:47:16;9.50;99.90
15184;DHT22;7693;49.266;7.104;2023-03-14T15:49:41;9.50;99.90
15184;DHT22;7693;49.266;7.104;2023-03-14T15:52:07;9.50;99.90
15184;DHT22;7693;49.266;7.104;2023-03-14T15:54:34;9.50;99.90
15184;DHT22;7693;49.266;7.104;2023-03-14T15:57:00;9.50;99.90
15184;DHT22;7693;49.266;7.104;2023-03-14T15:59:25;9.50;99.90
15184;DHT22;7693;49.266;7.104;2023-03-14T16:01:51;9.50;99.90
15184;DHT22;7693;49.266;7.104;2023-03-14T16:04:17;9.40;99.90
15184;DHT22;7693;49.266;7.104;2023-03-14T16:06:44;9.40;99.90
15184;DHT22;7693;49.266;7.104;2023-03-14T16:09:13;9.40;99.90
15184;DHT22;7693;49.266;7.104;2023-03-14T16:11:39;9.30;99.90
15184;DHT22;7693;49.266;7.104;2023-03-14T16:14:05;9.20;99.90
15184;DHT22;7693;49.266;7.104;2023-03-14T16:16:31;9.10;99.90
15184;DHT22;7693;49.266;7.104;2023-03-14T16:18:57;9.00;99.90
15184;DHT22;7693;49.266;7.104;2023-03-14T16:21:22;9.00;99.90
15184;DHT22;7693;49.266;7.104;2023-03-14T16:23:48;9.00;99.90
15184;DHT22;7693;49.266;7.104;2023-03-14T16:26:18;8.90;99.90
15184;DHT22;7693;49.266;7.104;2023-03-14T16:28:45;8.80;99.90
15184;DHT22;7693;49.266;7.104;2023-03-14T16:31:13;8.80;99.90
15184;DHT22;7693;49.266;7.104;2023-03-14T16:33:41;8.70;99.90
15184;DHT22;7693;49.266;7.104;2023-03-14T16:36:08;8.70;99.90
15184;DHT22;7693;49.266;7.104;2023-03-14T16:38:36;8.60;99.90
15184;DHT22;7693;49.266;7.104;2023-03-14T16:41:07;8.50;99.90
15184;DHT22;7693;49.266;7.104;2023-03-14T16:43:34;8.50;99.90
15184;DHT22;7693;49.266;7.104;2023-03-14T16:46:02;8.50;99.90
15184;DHT22;7693;49.266;7.104;2023-03-14T16:48:28;8.50;99.90
15184;DHT22;7693;49.266;7.104;2023-03-14T16:50:54;8.40;99.90
15184;DHT22;7693;49.266;7.104;2023-03-14T16:53:20;8.40;99.90
15184;DHT22;7693;49.266;7.104;2023-03-14T16:55:46;8.40;99.90
15184;DHT22;7693;49.266;7.104;2023-03-14T16:58:12;8.30;99.90
15184;DHT22;7693;49.266;7.104;2023-03-14T17:00:38;8.30;99.90
15184;DHT22;7693;49.266;7.104;2023-03-14T17:03:04;8.20;99.90
15184;DHT22;7693;49.266;7.104;2023-03-14T17:05:31;8.10;99.90
15184;DHT22;7693;49.266;7.104;2023-03-14T17:07:56;8.10;99.90
15184;DHT22;7693;49.266;7.104;2023-03-14T17:10:22;8.10;99.90
15184;DHT22;7693;49.266;7.104;2023-03-14T17:12:48;8.00;99.90
15184;DHT22;7693;49.266;7.104;2023-03-14T17:15:14;7.90;99.90
15184;DHT22;7693;49.266;7.104;2023-03-14T17:17:39;7.90;99.90
15184;DHT22;7693;49.266;7.104;2023-03-14T17:20:06;7.80;99.90
15184;DHT22;7693;49.266;7.104;2023-03-14T17:22:34;7.80;99.90
15184;DHT22;7693;49.266;7.104;2023-03-14T17:25:00;7.80;99.90
15184;DHT22;7693;49.266;7.104;2023-03-14T17:27:26;7.80;99.90
15184;DHT22;7693;49.266;7.104;2023-03-14T17:29:52;7.80;99.90
15184;DHT22;7693;49.266;7.104;2023-03-14T17:32:18;7.60;99.90
15184;DHT22;7693;49.266;7.104;2023-03-14T17:34:43;7.30;99.90
15184;DHT22;7693;49.266;7.104;2023-03-14T17:37:09;7.00;99.90
15184;DHT22;7693;49.266;7.104;2023-03-14T17:39:35;6.70;99.90
15184;DHT22;7693;49.266;7.104;2023-03-14T17:42:00;6.40;99.90
15184;DHT22;7693;49.266;7.104;2023-03-14T17:44:26;6.30;99.90
15184;DHT22;7693;49.266;7.104;2023-03-14T17:46:52;6.30;99.90
15184;DHT22;7693;49.266;7.104;2023-03-14T17:49:17;6.20;99.90
15184;DHT22;7693;49.266;7.104;2023-03-14T17:51:43;6.20;99.90
15184;DHT22;7693;49.266;7.104;2023-03-14T17:54:08;6.20;99.90
15184;DHT22;7693;49.266;7.104;2023-03-14T17:56:34;6.20;99.90
15184;DHT22;7693;49.266;7.104;2023-03-14T17:58:59;6.20;99.90
15184;DHT22;7693;49.266;7.104;2023-03-14T18:01:26;6.20;99.90
15184;DHT22;7693;49.266;7.104;2023-03-14T18:03:52;6.20;99.90
15184;DHT22;7693;49.266;7.104;2023-03-14T18:06:21;6.20;99.90
15184;DHT22;7693;49.266;7.104;2023-03-14T18:08:48;6.20;99.90
15184;DHT22;7693;49.266;7.104;2023-03-14T18:11:15;6.20;99.90
15184;DHT22;7693;49.266;7.104;2023-03-14T18:13:41;6.20;99.90
15184;DHT22;7693;49.266;7.104;2023-03-14T18:16:08;6.20;99.90
15184;DHT22;7693;49.266;7.104;2023-03-14T18:18:38;6.20;99.90
15184;DHT22;7693;49.266;7.104;2023-03-14T18:21:04;6.20;99.90
15184;DHT22;7693;49.266;7.104;2023-03-14T18:23:29;6.10;99.90
15184;DHT22;7693;49.266;7.104;2023-03-14T18:25:57;6.10;99.90
15184;DHT22;7693;49.266;7.104;2023-03-14T18:28:23;6.10;99.90
15184;DHT22;7693;49.266;7.104;2023-03-14T18:30:49;6.10;99.90
15184;DHT22;7693;49.266;7.104;2023-03-14T18:33:20;6.10;99.90
15184;DHT22;7693;49.266;7.104;2023-03-14T18:35:49;6.10;99.90
15184;DHT22;7693;49.266;7.104;2023-03-14T18:38:18;6.10;99.90
15184;DHT22;7693;49.266;7.104;2023-03-14T18:40:44;6.10;99.90
15184;DHT22;7693;49.266;7.104;2023-03-14T18:43:09;6.10;99.90
15184;DHT22;7693;49.266;7.104;2023-03-14T18:45:35;6.00;99.90
15184;DHT22;7693;49.266;7.104;2023-03-14T18:48:01;6.00;99.90
15184;DHT22;7693;49.266;7.104;2023-03-14T18:50:27;6.00;99.90
15184;DHT22;7693;49.266;7.104;2023-03-14T18:52:52;6.00;99.90
15184;DHT22;7693;49.266;7.104;2023-03-14T18:55:18;6.10;99.90
15184;DHT22;7693;49.266;7.104;2023-03-14T18:57:44;6.10;99.90
15184;DHT22;7693;49.266;7.104;2023-03-14T19:00:10;6.10;99.90
15184;DHT22;7693;49.266;7.104;2023-03-14T19:02:38;6.20;99.90
15184;DHT22;7693;49.266;7.104;2023-03-14T19:05:04;6.20;99.90
15184;DHT22;7693;49.266;7.104;2023-03-14T19:07:30;6.20;99.90
15184;DHT22;7693;49.266;7.104;2023-03-14T19:09:59;6.20;99.90
15184;DHT22;7693;49.266;7.104;2023-03-14T19:12:27;6.20;99.90
15184;DHT22;7693;49.266;7.104;2023-03-14T19:14:52;6.20;99.90
15184;DHT22;7693;49.266;7.104;2023-03-14T19:17:18;6.20;99.90
15184;DHT22;7693;49.266;7.104;2023-03-14T19:19:44;6.10;99.90
15184;DHT22;7693;49.266;7.104;2023-03-14T19:22:09;5.90;99.90
15184;DHT22;7693;49.266;7.104;2023-03-14T19:24:36;5.70;99.90
15184;DHT22;7693;49.266;7.104;2023-03-14T19:27:03;5.50;99.90
15184;DHT22;7693;49.266;7.104;2023-03-14T19:29:28;5.30;99.90
15184;DHT22;7693;49.266;7.104;2023-03-14T19:31:54;5.20;99.90
15184;DHT22;7693;49.266;7.104;2023-03-14T19:34:20;5.10;99.90
15184;DHT22;7693;49.266;7.104;2023-03-14T19:36:47;5.00;99.90
15184;DHT22;7693;49.266;7.104;2023-03-14T19:39:12;5.00;99.90
15184;DHT22;7693;49.266;7.104;2023-03-14T19:41:38;5.00;99.90
15184;DHT22;7693;49.266;7.104;2023-03-14T19:44:04;5.00;99.90
15184;DHT22;7693;49.266;7.104;2023-03-14T19:46:29;4.90;99.90
15184;DHT22;7693;49.266;7.104;2023-03-14T19:48:57;4.90;99.90
15184;DHT22;7693;49.266;7.104;2023-03-14T19:51:24;4.90;99.90
15184;DHT22;7693;49.266;7.104;2023-03-14T19:53:50;4.90;99.90
15184;DHT22;7693;49.266;7.104;2023-03-14T19:56:16;4.80;99.90
15184;DHT22;7693;49.266;7.104;2023-03-14T19:58:43;4.90;99.90
15184;DHT22;7693;49.266;7.104;2023-03-14T20:01:09;4.80;99.90
15184;DHT22;7693;49.266;7.104;2023-03-14T20:03:37;4.80;99.90
15184;DHT22;7693;49.266;7.104;2023-03-14T20:06:10;4.80;99.90
15184;DHT22;7693;49.266;7.104;2023-03-14T20:08:36;4.70;99.90
15184;DHT22;7693;49.266;7.104;2023-03-14T20:11:03;4.70;99.90
15184;DHT22;7693;49.266;7.104;2023-03-14T20:13:29;4.70;99.90
15184;DHT22;7693;49.266;7.104;2023-03-14T20:15:55;4.70;99.90
15184;DHT22;7693;49.266;7.104;2023-03-14T20:18:20;4.70;99.90
15184;DHT22;7693;49.266;7.104;2023-03-14T20:20:49;4.60;99.90
15184;DHT22;7693;49.266;7.104;2023-03-14T20:23:15;4.60;99.90
15184;DHT22;7693;49.266;7.104;2023-03-14T20:25:41;4.60;99.90
15184;DHT22;7693;49.266;7.104;2023-03-14T20:28:07;4.50;99.90
15184;DHT22;7693;49.266;7.104;2023-03-14T20:30:33;4.60;99.90
15184;DHT22;7693;49.266;7.104;2023-03-14T20:32:58;4.60;99.90
15184;DHT22;7693;49.266;7.104;2023-03-14T20:35:29;4.50;99.90
15184;DHT22;7693;49.266;7.104;2023-03-14T20:37:55;4.50;99.90
15184;DHT22;7693;49.266;7.104;2023-03-14T20:40:21;4.50;99.90
15184;DHT22;7693;49.266;7.104;2023-03-14T20:42:49;4.50;99.90
15184;DHT22;7693;49.266;7.104;2023-03-14T20:45:14;4.50;99.90
15184;DHT22;7693;49.266;7.104;2023-03-14T20:47:40;4.60;99.90
15184;DHT22;7693;49.266;7.104;2023-03-14T20:50:07;4.60;99.90
15184;DHT22;7693;49.266;7.104;2023-03-14T20:52:33;4.60;99.90
15184;DHT22;7693;49.266;7.104;2023-03-14T20:54:58;4.60;99.90
15184;DHT22;7693;49.266;7.104;2023-03-14T20:57:24;4.60;99.90
15184;DHT22;7693;49.266;7.104;2023-03-14T20:59:49;4.60;99.90
15184;DHT22;7693;49.266;7.104;2023-03-14T21:02:15;4.60;99.90
15184;DHT22;7693;49.266;7.104;2023-03-14T21:04:41;4.60;99.90
15184;DHT22;7693;49.266;7.104;2023-03-14T21:07:06;4.70;99.90
15184;DHT22;7693;49.266;7.104;2023-03-14T21:09:32;4.60;99.90
15184;DHT22;7693;49.266;7.104;2023-03-14T21:11:58;4.70;99.90
15184;DHT22;7693;49.266;7.104;2023-03-14T21:14:23;4.70;99.90
15184;DHT22;7693;49.266;7.104;2023-03-14T21:16:50;4.60;99.90
15184;DHT22;7693;49.266;7.104;2023-03-14T21:19:20;4.60;99.90
15184;DHT22;7693;49.266;7.104;2023-03-14T21:21:45;4.60;99.90
15184;DHT22;7693;49.266;7.104;2023-03-14T21:24:11;4.60;99.90
15184;DHT22;7693;49.266;7.104;2023-03-14T21:26:40;4.60;99.90
15184;DHT22;7693;49.266;7.104;2023-03-14T21:29:07;4.50;99.90
15184;DHT22;7693;49.266;7.104;2023-03-14T21:31:32;4.50;99.90
15184;DHT22;7693;49.266;7.104;2023-03-14T21:33:58;4.40;99.90
15184;DHT22;7693;49.266;7.104;2023-03-14T21:36:24;4.40;99.90
15184;DHT22;7693;49.266;7.104;2023-03-14T21:38:50;4.30;99.90
15184;DHT22;7693;49.266;7.104;2023-03-14T21:41:15;4.30;99.90
15184;DHT22;7693;49.266;7.104;2023-03-14T21:43:41;4.30;99.90
15184;DHT22;7693;49.266;7.104;2023-03-14T21:46:10;4.30;99.90
15184;DHT22;7693;49.266;7.104;2023-03-14T21:48:36;4.20;99.90
15184;DHT22;7693;49.266;7.104;2023-03-14T21:51:03;4.30;99.90
15184;DHT22;7693;49.266;7.104;2023-03-14T21:53:33;4.20;99.90
15184;DHT22;7693;49.266;7.104;2023-03-14T21:55:59;4.20;99.90
15184;DHT22;7693;49.266;7.104;2023-03-14T21:58:25;4.20;99.90
15184;DHT22;7693;49.266;7.104;2023-03-14T22:00:51;4.10;99.90
15184;DHT22;7693;49.266;7.104;2023-03-14T22:03:19;4.10;99.90
15184;DHT22;7693;49.266;7.104;2023-03-14T22:05:48;4.10;99.90
15184;DHT22;7693;49.266;7.104;2023-03-14T22:08:15;4.00;99.90
15184;DHT22;7693;49.266;7.104;2023-03-14T22:10:46;4.00;99.90
15184;DHT22;7693;49.266;7.104;2023-03-14T22:13:12;3.90;99.90
15184;DHT22;7693;49.266;7.104;2023-03-14T22:15:38;3.90;99.90
15184;DHT22;7693;49.266;7.104;2023-03-14T22:18:04;3.80;99.90
15184;DHT22;7693;49.266;7.104;2023-03-14T22:20:29;3.80;99.90
15184;DHT22;7693;49.266;7.104;2023-03-14T22:22:55;3.70;99.90
15184;DHT22;7693;49.266;7.104;2023-03-14T22:25:20;3.70;99.90
15184;DHT22;7693;49.266;7.104;2023-03-14T22:27:46;3.70;99.90
15184;DHT22;7693;49.266;7.104;2023-03-14T22:30:12;3.60;99.90
15184;DHT22;7693;49.266;7.104;2023-03-14T22:32:37;3.60;99.90
15184;DHT22;7693;49.266;7.104;2023-03-14T22:35:03;3.50;99.90
15184;DHT22;7693;49.266;7.104;2023-03-14T22:37:29;3.50;99.90
15184;DHT22;7693;49.266;7.104;2023-03-14T22:39:54;3.50;99.90
15184;DHT22;7693;49.266;7.104;2023-03-14T22:42:20;3.50;99.90
15184;DHT22;7693;49.266;7.104;2023-03-14T22:44:45;3.40;99.90
15184;DHT22;7693;49.266;7.104;2023-03-14T22:47:11;3.40;99.90
15184;DHT22;7693;49.266;7.104;2023-03-14T22:49:36;3.30;99.90
15184;DHT22;7693;49.266;7.104;2023-03-14T22:52:02;3.30;99.90
15184;DHT22;7693;49.266;7.104;2023-03-14T22:54:28;3.30;99.90
15184;DHT22;7693;49.266;7.104;2023-03-14T22:56:53;3.30;99.90
15184;DHT22;7693;49.266;7.104;2023-03-14T22:59:19;3.20;99.90
15184;DHT22;7693;49.266;7.104;2023-03-14T23:01:44;3.20;99.90
15184;DHT22;7693;49.266;7.104;2023-03-14T23:04:10;3.20;99.90
15184;DHT22;7693;49.266;7.104;2023-03-14T23:06:35;3.20;99.90
15184;DHT22;7693;49.266;7.104;2023-03-14T23:09:01;3.10;99.90
15184;DHT22;7693;49.266;7.104;2023-03-14T23:11:27;3.20;99.90
15184;DHT22;7693;49.266;7.104;2023-03-14T23:13:53;3.10;99.90
15184;DHT22;7693;49.266;7.104;2023-03-14T23:16:18;3.10;99.90
15184;DHT22;7693;49.266;7.104;2023-03-14T23:18:48;3.10;99.90
